sensor_id;sensor_type;location;lat;lon;timestamp;temperature;humidity
24011;DHT22;12217;50.792;4.372;2023-08-06T00:01:42;16.40;99.90
24011;DHT22;12217;50.792;4.372;2023-08-06T00:04:08;16.40;99.90
24011;DHT22;12217;50.792;4.372;2023-08-06T00:06:33;16.20;99.90
24011;DHT22;12217;50.792;4.372;2023-08-06T00:08:59;16.20;99.90
24011;DHT22;12217;50.792;4.372;2023-08-06T00:11:25;16.30;99.90
24011;DHT22;12217;50.792;4.372;2023-08-06T00:13:50;16.50;99.90
24011;DHT22;12217;50.792;4.372;2023-08-06T00:16:16;16.70;99.90
24011;DHT22;12217;50.792;4.372;2023-08-06T00:18:41;16.70;99.90
24011;DHT22;12217;50.792;4.372;2023-08-06T00:21:07;16.60;99.90
24011;DHT22;12217;50.792;4.372;2023-08-06T00:23:33;16.60;99.90
24011;DHT22;12217;50.792;4.372;2023-08-06T00:25:58;16.40;99.90
24011;DHT22;12217;50.792;4.372;2023-08-06T00:28:24;16.30;99.90
24011;DHT22;12217;50.792;4.372;2023-08-06T00:30:56;16.30;99.90
24011;DHT22;12217;50.792;4.372;2023-08-06T00:33:25;16.30;99.90
24011;DHT22;12217;50.792;4.372;2023-08-06T00:35:51;16.20;99.90
24011;DHT22;12217;50.792;4.372;2023-08-06T00:38:16;16.40;99.90
24011;DHT22;12217;50.792;4.372;2023-08-06T00:40:42;16.50;99.90
24011;DHT22;12217;50.792;4.372;2023-08-06T00:43:09;16.50;99.90
24011;DHT22;12217;50.792;4.372;2023-08-06T00:45:36;16.50;99.90
24011;DHT22;12217;50.792;4.372;2023-08-06T00:48:04;16.40;99.90
24011;DHT22;12217;50.792;4.372;2023-08-06T00:50:30;16.20;99.90
24011;DHT22;12217;50.792;4.372;2023-08-06T00:52:56;16.30;99.90
24011;DHT22;12217;50.792;4.372;2023-08-06T00:55:25;16.10;99.90
24011;DHT22;12217;50.792;4.372;2023-08-06T00:57:51;16.20;99.90
24011;DHT22;12217;50.792;4.372;2023-08-06T01:00:19;16.30;99.90
24011;DHT22;12217;50.792;4.372;2023-08-06T01:02:46;16.30;99.90
24011;DHT22;12217;50.792;4.372;2023-08-06T01:05:11;16.30;99.90
24011;DHT22;12217;50.792;4.372;2023-08-06T01:13:41;16.10;99.90
24011;DHT22;12217;50.792;4.372;2023-08-06T01:16:03;16.00;99.90
24011;DHT22;12217;50.792;4.372;2023-08-06T01:18:31;16.00;99.90
24011;DHT22;12217;50.792;4.372;2023-08-06T01:20:57;16.10;99.90
24011;DHT22;12217;50.792;4.372;2023-08-06T01:23:23;16.20;99.90
24011;DHT22;12217;50.792;4.372;2023-08-06T01:26:33;16.10;99.90
24011;DHT22;12217;50.792;4.372;2023-08-06T01:31:56;16.20;99.90
24011;DHT22;12217;50.792;4.372;2023-08-06T01:34:28;16.20;99.90
24011;DHT22;12217;50.792;4.372;2023-08-06T01:36:57;16.30;99.90
24011;DHT22;12217;50.792;4.372;2023-08-06T01:39:23;16.20;99.90
24011;DHT22;12217;50.792;4.372;2023-08-06T01:41:49;16.20;99.90
24011;DHT22;12217;50.792;4.372;2023-08-06T01:44:15;16.30;99.90
24011;DHT22;12217;50.792;4.372;2023-08-06T01:46:41;16.10;99.90
24011;DHT22;12217;50.792;4.372;2023-08-06T01:49:07;16.10;99.90
24011;DHT22;12217;50.792;4.372;2023-08-06T01:51:33;16.00;99.90
24011;DHT22;12217;50.792;4.372;2023-08-06T01:53:58;16.10;99.90
24011;DHT22;12217;50.792;4.372;2023-08-06T01:56:24;16.10;99.90
24011;DHT22;12217;50.792;4.372;2023-08-06T01:58:49;16.10;99.90
24011;DHT22;12217;50.792;4.372;2023-08-06T02:01:15;16.10;99.90
24011;DHT22;12217;50.792;4.372;2023-08-06T02:03:41;16.20;99.90
24011;DHT22;12217;50.792;4.372;2023-08-06T02:06:07;16.30;99.90
24011;DHT22;12217;50.792;4.372;2023-08-06T02:08:32;16.30;99.90
24011;DHT22;12217;50.792;4.372;2023-08-06T02:10:58;16.30;99.90
24011;DHT22;12217;50.792;4.372;2023-08-06T02:13:24;16.40;99.90
24011;DHT22;12217;50.792;4.372;2023-08-06T02:15:50;16.30;99.90
24011;DHT22;12217;50.792;4.372;2023-08-06T02:18:16;16.20;99.90
24011;DHT22;12217;50.792;4.372;2023-08-06T02:20:42;16.20;99.90
24011;DHT22;12217;50.792;4.372;2023-08-06T02:23:08;16.00;99.90
24011;DHT22;12217;50.792;4.372;2023-08-06T02:25:34;16.00;99.90
24011;DHT22;12217;50.792;4.372;2023-08-06T02:28:00;16.00;99.90
24011;DHT22;12217;50.792;4.372;2023-08-06T02:30:26;16.00;99.90
24011;DHT22;12217;50.792;4.372;2023-08-06T02:32:51;16.10;99.90
24011;DHT22;12217;50.792;4.372;2023-08-06T02:35:17;16.20;99.90
24011;DHT22;12217;50.792;4.372;2023-08-06T02:37:43;16.20;99.90
24011;DHT22;12217;50.792;4.372;2023-08-06T02:40:08;16.30;99.90
24011;DHT22;12217;50.792;4.372;2023-08-06T02:42:34;16.30;99.90
24011;DHT22;12217;50.792;4.372;2023-08-06T02:45:00;16.50;99.90
24011;DHT22;12217;50.792;4.372;2023-08-06T02:47:25;16.60;99.90
24011;DHT22;12217;50.792;4.372;2023-08-06T02:49:51;16.60;99.90
24011;DHT22;12217;50.792;4.372;2023-08-06T02:52:18;16.60;99.90
24011;DHT22;12217;50.792;4.372;2023-08-06T02:54:44;16.70;99.90
24011;DHT22;12217;50.792;4.372;2023-08-06T02:57:09;16.60;99.90
24011;DHT22;12217;50.792;4.372;2023-08-06T02:59:35;16.50;99.90
24011;DHT22;12217;50.792;4.372;2023-08-06T03:02:00;16.50;99.90
24011;DHT22;12217;50.792;4.372;2023-08-06T03:04:26;16.50;99.90
24011;DHT22;12217;50.792;4.372;2023-08-06T03:06:52;16.50;99.90
24011;DHT22;12217;50.792;4.372;2023-08-06T03:09:18;16.60;99.90
24011;DHT22;12217;50.792;4.372;2023-08-06T03:11:44;16.60;99.90
24011;DHT22;12217;50.792;4.372;2023-08-06T03:14:09;16.60;99.90
24011;DHT22;12217;50.792;4.372;2023-08-06T03:16:35;16.60;99.90
24011;DHT22;12217;50.792;4.372;2023-08-06T03:19:01;16.60;99.90
24011;DHT22;12217;50.792;4.372;2023-08-06T03:21:27;16.30;99.90
24011;DHT22;12217;50.792;4.372;2023-08-06T03:23:52;16.30;99.90
24011;DHT22;12217;50.792;4.372;2023-08-06T03:26:18;16.40;99.90
24011;DHT22;12217;50.792;4.372;2023-08-06T03:28:44;16.50;99.90
24011;DHT22;12217;50.792;4.372;2023-08-06T03:31:09;16.50;99.90
24011;DHT22;12217;50.792;4.372;2023-08-06T03:33:35;16.50;99.90
24011;DHT22;12217;50.792;4.372;2023-08-06T03:36:01;16.50;99.90
24011;DHT22;12217;50.792;4.372;2023-08-06T03:38:27;16.40;99.90
24011;DHT22;12217;50.792;4.372;2023-08-06T03:40:53;16.30;99.90
24011;DHT22;12217;50.792;4.372;2023-08-06T03:43:19;16.20;99.90
24011;DHT22;12217;50.792;4.372;2023-08-06T03:45:45;16.40;99.90
24011;DHT22;12217;50.792;4.372;2023-08-06T03:48:10;16.40;99.90
24011;DHT22;12217;50.792;4.372;2023-08-06T03:50:36;16.30;99.90
24011;DHT22;12217;50.792;4.372;2023-08-06T03:53:02;16.20;99.90
24011;DHT22;12217;50.792;4.372;2023-08-06T03:55:28;16.10;99.90
24011;DHT22;12217;50.792;4.372;2023-08-06T03:57:53;15.90;99.90
24011;DHT22;12217;50.792;4.372;2023-08-06T04:00:19;15.70;99.90
24011;DHT22;12217;50.792;4.372;2023-08-06T04:02:45;15.60;99.90
24011;DHT22;12217;50.792;4.372;2023-08-06T04:05:12;15.40;99.90
24011;DHT22;12217;50.792;4.372;2023-08-06T04:07:37;15.40;99.90
24011;DHT22;12217;50.792;4.372;2023-08-06T04:10:04;15.30;99.90
24011;DHT22;12217;50.792;4.372;2023-08-06T04:12:30;15.20;99.90
24011;DHT22;12217;50.792;4.372;2023-08-06T04:14:58;15.10;99.90
24011;DHT22;12217;50.792;4.372;2023-08-06T04:17:24;15.10;99.90
24011;DHT22;12217;50.792;4.372;2023-08-06T04:19:54;15.10;99.90
24011;DHT22;12217;50.792;4.372;2023-08-06T04:22:21;15.00;99.90
24011;DHT22;12217;50.792;4.372;2023-08-06T04:24:47;15.00;99.90
24011;DHT22;12217;50.792;4.372;2023-08-06T04:27:14;15.00;99.90
24011;DHT22;12217;50.792;4.372;2023-08-06T04:29:40;15.10;99.90
24011;DHT22;12217;50.792;4.372;2023-08-06T04:32:07;15.00;99.90
24011;DHT22;12217;50.792;4.372;2023-08-06T04:34:34;15.10;99.90
24011;DHT22;12217;50.792;4.372;2023-08-06T04:37:00;15.20;99.90
24011;DHT22;12217;50.792;4.372;2023-08-06T04:39:26;15.20;99.90
24011;DHT22;12217;50.792;4.372;2023-08-06T04:41:52;15.20;99.90
24011;DHT22;12217;50.792;4.372;2023-08-06T04:44:17;15.20;99.90
24011;DHT22;12217;50.792;4.372;2023-08-06T04:46:43;15.30;99.90
24011;DHT22;12217;50.792;4.372;2023-08-06T04:49:09;15.30;99.90
24011;DHT22;12217;50.792;4.372;2023-08-06T04:51:35;15.20;99.90
24011;DHT22;12217;50.792;4.372;2023-08-06T04:54:00;15.10;99.90
24011;DHT22;12217;50.792;4.372;2023-08-06T04:56:26;15.00;99.90
24011;DHT22;12217;50.792;4.372;2023-08-06T04:58:52;15.10;99.90
24011;DHT22;12217;50.792;4.372;2023-08-06T05:01:18;15.10;99.90
24011;DHT22;12217;50.792;4.372;2023-08-06T05:03:43;15.20;99.90
24011;DHT22;12217;50.792;4.372;2023-08-06T05:06:09;15.20;99.90
24011;DHT22;12217;50.792;4.372;2023-08-06T05:08:36;15.20;99.90
24011;DHT22;12217;50.792;4.372;2023-08-06T05:11:01;15.10;99.90
24011;DHT22;12217;50.792;4.372;2023-08-06T05:13:27;15.20;99.90
24011;DHT22;12217;50.792;4.372;2023-08-06T05:15:56;15.20;99.90
24011;DHT22;12217;50.792;4.372;2023-08-06T05:18:22;15.10;99.90
24011;DHT22;12217;50.792;4.372;2023-08-06T05:20:47;15.20;99.90
24011;DHT22;12217;50.792;4.372;2023-08-06T05:23:13;15.20;99.90
24011;DHT22;12217;50.792;4.372;2023-08-06T05:25:39;15.20;99.90
24011;DHT22;12217;50.792;4.372;2023-08-06T05:28:04;15.30;99.90
24011;DHT22;12217;50.792;4.372;2023-08-06T05:30:30;15.30;99.90
24011;DHT22;12217;50.792;4.372;2023-08-06T05:32:56;15.30;99.90
24011;DHT22;12217;50.792;4.372;2023-08-06T05:35:22;15.20;99.90
24011;DHT22;12217;50.792;4.372;2023-08-06T05:37:48;15.20;99.90
24011;DHT22;12217;50.792;4.372;2023-08-06T05:40:14;15.20;99.90
24011;DHT22;12217;50.792;4.372;2023-08-06T05:42:40;15.30;99.90
24011;DHT22;12217;50.792;4.372;2023-08-06T05:45:06;15.30;99.90
24011;DHT22;12217;50.792;4.372;2023-08-06T05:47:32;15.20;99.90
24011;DHT22;12217;50.792;4.372;2023-08-06T05:49:58;15.30;99.90
24011;DHT22;12217;50.792;4.372;2023-08-06T05:52:24;15.40;99.90
24011;DHT22;12217;50.792;4.372;2023-08-06T05:54:49;15.50;99.90
24011;DHT22;12217;50.792;4.372;2023-08-06T05:57:15;15.50;99.90
24011;DHT22;12217;50.792;4.372;2023-08-06T05:59:41;15.60;99.90
24011;DHT22;12217;50.792;4.372;2023-08-06T06:02:07;15.60;99.90
24011;DHT22;12217;50.792;4.372;2023-08-06T06:04:33;15.60;99.90
24011;DHT22;12217;50.792;4.372;2023-08-06T06:06:58;15.60;99.90
24011;DHT22;12217;50.792;4.372;2023-08-06T06:09:24;15.60;99.90
24011;DHT22;12217;50.792;4.372;2023-08-06T06:11:50;15.70;99.90
24011;DHT22;12217;50.792;4.372;2023-08-06T06:14:17;15.70;99.90
24011;DHT22;12217;50.792;4.372;2023-08-06T06:16:42;15.70;99.90
24011;DHT22;12217;50.792;4.372;2023-08-06T06:19:08;15.80;99.90
24011;DHT22;12217;50.792;4.372;2023-08-06T06:21:34;15.80;99.90
24011;DHT22;12217;50.792;4.372;2023-08-06T06:23:59;15.80;99.90
24011;DHT22;12217;50.792;4.372;2023-08-06T06:26:25;15.80;99.90
24011;DHT22;12217;50.792;4.372;2023-08-06T06:28:50;15.70;99.90
24011;DHT22;12217;50.792;4.372;2023-08-06T06:31:16;15.70;99.90
24011;DHT22;12217;50.792;4.372;2023-08-06T06:33:42;15.70;99.90
24011;DHT22;12217;50.792;4.372;2023-08-06T06:36:07;15.80;99.90
24011;DHT22;12217;50.792;4.372;2023-08-06T06:38:34;15.80;99.90
24011;DHT22;12217;50.792;4.372;2023-08-06T06:40:59;15.80;99.90
24011;DHT22;12217;50.792;4.372;2023-08-06T06:43:25;15.70;99.90
24011;DHT22;12217;50.792;4.372;2023-08-06T06:45:58;15.60;99.90
24011;DHT22;12217;50.792;4.372;2023-08-06T06:48:28;15.70;99.90
24011;DHT22;12217;50.792;4.372;2023-08-06T06:50:55;15.70;99.90
24011;DHT22;12217;50.792;4.372;2023-08-06T06:53:21;15.70;99.90
24011;DHT22;12217;50.792;4.372;2023-08-06T06:55:55;15.70;99.90
24011;DHT22;12217;50.792;4.372;2023-08-06T06:58:21;15.70;99.90
24011;DHT22;12217;50.792;4.372;2023-08-06T07:00:47;15.60;99.90
24011;DHT22;12217;50.792;4.372;2023-08-06T07:03:14;15.70;99.90
24011;DHT22;12217;50.792;4.372;2023-08-06T07:05:40;15.60;99.90
24011;DHT22;12217;50.792;4.372;2023-08-06T07:08:06;15.40;99.90
24011;DHT22;12217;50.792;4.372;2023-08-06T07:10:31;15.40;99.90
24011;DHT22;12217;50.792;4.372;2023-08-06T07:12:57;15.50;99.90
24011;DHT22;12217;50.792;4.372;2023-08-06T07:15:24;15.50;99.90
24011;DHT22;12217;50.792;4.372;2023-08-06T07:17:50;15.60;99.90
24011;DHT22;12217;50.792;4.372;2023-08-06T07:20:15;15.60;99.90
24011;DHT22;12217;50.792;4.372;2023-08-06T07:22:41;15.50;99.90
24011;DHT22;12217;50.792;4.372;2023-08-06T07:25:07;15.50;99.90
24011;DHT22;12217;50.792;4.372;2023-08-06T07:27:33;15.50;99.90
24011;DHT22;12217;50.792;4.372;2023-08-06T07:29:58;15.70;99.90
24011;DHT22;12217;50.792;4.372;2023-08-06T07:32:24;15.50;99.90
24011;DHT22;12217;50.792;4.372;2023-08-06T07:34:50;15.70;99.90
24011;DHT22;12217;50.792;4.372;2023-08-06T07:37:22;15.80;99.90
24011;DHT22;12217;50.792;4.372;2023-08-06T07:39:47;15.70;99.90
24011;DHT22;12217;50.792;4.372;2023-08-06T07:42:13;15.60;99.90
24011;DHT22;12217;50.792;4.372;2023-08-06T07:44:38;15.60;99.90
24011;DHT22;12217;50.792;4.372;2023-08-06T07:47:04;15.60;99.90
24011;DHT22;12217;50.792;4.372;2023-08-06T07:49:30;15.40;99.90
24011;DHT22;12217;50.792;4.372;2023-08-06T07:51:56;15.50;99.90
24011;DHT22;12217;50.792;4.372;2023-08-06T07:54:21;15.60;99.90
24011;DHT22;12217;50.792;4.372;2023-08-06T07:56:47;15.60;99.90
24011;DHT22;12217;50.792;4.372;2023-08-06T07:59:13;15.60;99.90
24011;DHT22;12217;50.792;4.372;2023-08-06T08:01:39;15.60;99.90
24011;DHT22;12217;50.792;4.372;2023-08-06T08:04:04;15.70;99.90
24011;DHT22;12217;50.792;4.372;2023-08-06T08:06:30;15.80;99.90
24011;DHT22;12217;50.792;4.372;2023-08-06T08:08:56;16.00;99.90
24011;DHT22;12217;50.792;4.372;2023-08-06T08:11:21;16.00;99.90
24011;DHT22;12217;50.792;4.372;2023-08-06T08:13:47;16.10;99.90
24011;DHT22;12217;50.792;4.372;2023-08-06T08:16:12;16.10;99.90
24011;DHT22;12217;50.792;4.372;2023-08-06T08:18:38;16.20;99.90
24011;DHT22;12217;50.792;4.372;2023-08-06T08:21:04;16.20;99.90
24011;DHT22;12217;50.792;4.372;2023-08-06T08:23:29;16.10;99.90
24011;DHT22;12217;50.792;4.372;2023-08-06T08:25:56;16.20;99.90
24011;DHT22;12217;50.792;4.372;2023-08-06T08:28:22;16.10;99.90
24011;DHT22;12217;50.792;4.372;2023-08-06T08:30:48;16.00;99.90
24011;DHT22;12217;50.792;4.372;2023-08-06T08:33:13;15.90;99.90
24011;DHT22;12217;50.792;4.372;2023-08-06T08:35:39;15.80;99.90
24011;DHT22;12217;50.792;4.372;2023-08-06T08:38:05;15.80;99.90
24011;DHT22;12217;50.792;4.372;2023-08-06T08:40:51;15.70;99.90
24011;DHT22;12217;50.792;4.372;2023-08-06T08:43:23;15.70;99.90
24011;DHT22;12217;50.792;4.372;2023-08-06T08:45:53;15.70;99.90
24011;DHT22;12217;50.792;4.372;2023-08-06T08:48:21;15.70;99.90
24011;DHT22;12217;50.792;4.372;2023-08-06T08:50:49;15.80;99.90
24011;DHT22;12217;50.792;4.372;2023-08-06T08:53:16;15.80;99.90
24011;DHT22;12217;50.792;4.372;2023-08-06T08:55:47;15.90;99.90
24011;DHT22;12217;50.792;4.372;2023-08-06T08:58:14;15.90;99.90
24011;DHT22;12217;50.792;4.372;2023-08-06T09:00:47;15.70;99.90
24011;DHT22;12217;50.792;4.372;2023-08-06T09:03:16;15.70;99.90
24011;DHT22;12217;50.792;4.372;2023-08-06T09:05:44;15.70;99.90
24011;DHT22;12217;50.792;4.372;2023-08-06T09:08:12;15.80;99.90
24011;DHT22;12217;50.792;4.372;2023-08-06T09:10:40;15.60;99.90
24011;DHT22;12217;50.792;4.372;2023-08-06T09:13:06;15.90;99.90
24011;DHT22;12217;50.792;4.372;2023-08-06T09:15:32;16.10;99.90
24011;DHT22;12217;50.792;4.372;2023-08-06T09:17:58;16.20;99.90
24011;DHT22;12217;50.792;4.372;2023-08-06T09:20:24;16.10;99.90
24011;DHT22;12217;50.792;4.372;2023-08-06T09:22:53;16.00;99.90
24011;DHT22;12217;50.792;4.372;2023-08-06T09:25:23;15.80;99.90
24011;DHT22;12217;50.792;4.372;2023-08-06T09:27:53;15.60;99.90
24011;DHT22;12217;50.792;4.372;2023-08-06T09:30:30;15.60;99.90
24011;DHT22;12217;50.792;4.372;2023-08-06T09:32:59;15.60;99.90
24011;DHT22;12217;50.792;4.372;2023-08-06T09:35:25;15.50;99.90
24011;DHT22;12217;50.792;4.372;2023-08-06T09:37:53;15.30;99.90
24011;DHT22;12217;50.792;4.372;2023-08-06T09:40:31;15.40;99.90
24011;DHT22;12217;50.792;4.372;2023-08-06T09:42:58;15.30;99.90
24011;DHT22;12217;50.792;4.372;2023-08-06T09:45:29;15.30;99.90
24011;DHT22;12217;50.792;4.372;2023-08-06T09:47:56;15.30;99.90
24011;DHT22;12217;50.792;4.372;2023-08-06T09:50:22;15.20;99.90
24011;DHT22;12217;50.792;4.372;2023-08-06T09:52:48;15.10;99.90
24011;DHT22;12217;50.792;4.372;2023-08-06T09:55:16;15.00;99.90
24011;DHT22;12217;50.792;4.372;2023-08-06T09:57:42;15.10;99.90
24011;DHT22;12217;50.792;4.372;2023-08-06T10:00:09;15.10;99.90
24011;DHT22;12217;50.792;4.372;2023-08-06T10:02:37;15.10;99.90
24011;DHT22;12217;50.792;4.372;2023-08-06T10:05:03;15.20;99.90
24011;DHT22;12217;50.792;4.372;2023-08-06T10:07:30;15.20;99.90
24011;DHT22;12217;50.792;4.372;2023-08-06T10:09:56;15.30;99.90
24011;DHT22;12217;50.792;4.372;2023-08-06T10:12:22;15.40;99.90
24011;DHT22;12217;50.792;4.372;2023-08-06T10:14:51;15.50;99.90
24011;DHT22;12217;50.792;4.372;2023-08-06T10:17:18;15.60;99.90
24011;DHT22;12217;50.792;4.372;2023-08-06T10:19:44;15.40;99.90
24011;DHT22;12217;50.792;4.372;2023-08-06T10:22:14;15.20;99.90
24011;DHT22;12217;50.792;4.372;2023-08-06T10:27:20;15.40;99.90
24011;DHT22;12217;50.792;4.372;2023-08-06T10:29:46;15.30;99.90
24011;DHT22;12217;50.792;4.372;2023-08-06T10:32:12;15.20;99.90
24011;DHT22;12217;50.792;4.372;2023-08-06T10:34:59;15.20;99.90
24011;DHT22;12217;50.792;4.372;2023-08-06T10:37:36;15.20;99.90
24011;DHT22;12217;50.792;4.372;2023-08-06T10:40:03;15.30;99.90
24011;DHT22;12217;50.792;4.372;2023-08-06T10:42:31;15.20;99.90
24011;DHT22;12217;50.792;4.372;2023-08-06T10:45:16;15.20;99.90
24011;DHT22;12217;50.792;4.372;2023-08-06T10:47:43;15.20;99.90
24011;DHT22;12217;50.792;4.372;2023-08-06T10:50:12;15.40;99.90
24011;DHT22;12217;50.792;4.372;2023-08-06T10:52:39;15.40;99.90
24011;DHT22;12217;50.792;4.372;2023-08-06T10:55:06;15.40;99.90
24011;DHT22;12217;50.792;4.372;2023-08-06T10:57:31;15.40;99.90
24011;DHT22;12217;50.792;4.372;2023-08-06T10:59:57;15.40;99.90
24011;DHT22;12217;50.792;4.372;2023-08-06T11:02:23;15.50;99.90
24011;DHT22;12217;50.792;4.372;2023-08-06T11:04:49;15.50;99.90
24011;DHT22;12217;50.792;4.372;2023-08-06T11:07:14;15.60;99.90
24011;DHT22;12217;50.792;4.372;2023-08-06T11:09:40;15.70;99.90
24011;DHT22;12217;50.792;4.372;2023-08-06T11:12:12;15.80;99.90
24011;DHT22;12217;50.792;4.372;2023-08-06T11:14:50;15.80;99.90
24011;DHT22;12217;50.792;4.372;2023-08-06T11:17:15;15.80;99.90
24011;DHT22;12217;50.792;4.372;2023-08-06T11:19:41;15.90;99.90
24011;DHT22;12217;50.792;4.372;2023-08-06T11:22:07;15.90;99.90
24011;DHT22;12217;50.792;4.372;2023-08-06T11:24:32;15.80;99.90
24011;DHT22;12217;50.792;4.372;2023-08-06T11:26:58;15.80;99.90
24011;DHT22;12217;50.792;4.372;2023-08-06T11:29:24;15.80;99.90
24011;DHT22;12217;50.792;4.372;2023-08-06T11:31:49;16.00;99.90
24011;DHT22;12217;50.792;4.372;2023-08-06T11:34:15;16.00;99.90
24011;DHT22;12217;50.792;4.372;2023-08-06T11:36:42;16.00;99.90
24011;DHT22;12217;50.792;4.372;2023-08-06T11:39:08;16.10;99.90
24011;DHT22;12217;50.792;4.372;2023-08-06T11:41:36;16.10;99.90
24011;DHT22;12217;50.792;4.372;2023-08-06T11:44:03;16.10;99.90
24011;DHT22;12217;50.792;4.372;2023-08-06T11:46:29;15.90;99.90
24011;DHT22;12217;50.792;4.372;2023-08-06T11:49:14;15.80;99.90
24011;DHT22;12217;50.792;4.372;2023-08-06T11:51:40;15.70;99.90
24011;DHT22;12217;50.792;4.372;2023-08-06T11:54:06;15.60;99.90
24011;DHT22;12217;50.792;4.372;2023-08-06T11:56:32;15.50;99.90
24011;DHT22;12217;50.792;4.372;2023-08-06T11:58:58;15.50;99.90
24011;DHT22;12217;50.792;4.372;2023-08-06T12:01:25;15.40;99.90
24011;DHT22;12217;50.792;4.372;2023-08-06T12:03:51;15.40;99.90
24011;DHT22;12217;50.792;4.372;2023-08-06T12:06:16;15.30;99.90
24011;DHT22;12217;50.792;4.372;2023-08-06T12:08:42;15.40;99.90
24011;DHT22;12217;50.792;4.372;2023-08-06T12:11:07;15.30;99.90
24011;DHT22;12217;50.792;4.372;2023-08-06T12:13:34;15.30;99.90
24011;DHT22;12217;50.792;4.372;2023-08-06T12:16:00;15.40;99.90
24011;DHT22;12217;50.792;4.372;2023-08-06T12:18:25;15.40;99.90
24011;DHT22;12217;50.792;4.372;2023-08-06T12:20:51;15.40;99.90
24011;DHT22;12217;50.792;4.372;2023-08-06T12:23:17;15.40;99.90
24011;DHT22;12217;50.792;4.372;2023-08-06T12:25:43;15.50;99.90
24011;DHT22;12217;50.792;4.372;2023-08-06T12:28:10;15.60;99.90
24011;DHT22;12217;50.792;4.372;2023-08-06T12:30:36;15.70;99.90
24011;DHT22;12217;50.792;4.372;2023-08-06T12:33:01;16.00;99.90
24011;DHT22;12217;50.792;4.372;2023-08-06T12:35:27;16.00;99.90
24011;DHT22;12217;50.792;4.372;2023-08-06T12:37:53;16.00;99.90
24011;DHT22;12217;50.792;4.372;2023-08-06T12:40:20;16.00;99.90
24011;DHT22;12217;50.792;4.372;2023-08-06T12:42:46;15.90;99.90
24011;DHT22;12217;50.792;4.372;2023-08-06T12:45:12;15.90;99.90
24011;DHT22;12217;50.792;4.372;2023-08-06T12:47:37;15.90;99.90
24011;DHT22;12217;50.792;4.372;2023-08-06T12:50:03;15.80;99.90
24011;DHT22;12217;50.792;4.372;2023-08-06T12:52:29;15.60;99.90
24011;DHT22;12217;50.792;4.372;2023-08-06T12:54:55;15.60;99.90
24011;DHT22;12217;50.792;4.372;2023-08-06T12:57:20;15.60;99.90
24011;DHT22;12217;50.792;4.372;2023-08-06T12:59:46;15.60;99.90
24011;DHT22;12217;50.792;4.372;2023-08-06T13:02:12;15.50;99.90
24011;DHT22;12217;50.792;4.372;2023-08-06T13:04:37;15.50;99.90
24011;DHT22;12217;50.792;4.372;2023-08-06T13:07:03;15.50;99.90
24011;DHT22;12217;50.792;4.372;2023-08-06T13:09:29;15.50;99.90
24011;DHT22;12217;50.792;4.372;2023-08-06T13:11:55;15.50;99.90
24011;DHT22;12217;50.792;4.372;2023-08-06T13:14:20;15.60;99.90
24011;DHT22;12217;50.792;4.372;2023-08-06T13:16:46;15.50;99.90
24011;DHT22;12217;50.792;4.372;2023-08-06T13:19:12;15.50;99.90
24011;DHT22;12217;50.792;4.372;2023-08-06T13:24:07;15.60;99.90
24011;DHT22;12217;50.792;4.372;2023-08-06T13:26:33;15.40;99.90
24011;DHT22;12217;50.792;4.372;2023-08-06T13:29:00;15.60;99.90
24011;DHT22;12217;50.792;4.372;2023-08-06T13:31:26;15.60;99.90
24011;DHT22;12217;50.792;4.372;2023-08-06T13:33:53;15.70;99.90
24011;DHT22;12217;50.792;4.372;2023-08-06T13:36:21;15.60;99.90
24011;DHT22;12217;50.792;4.372;2023-08-06T13:38:47;15.60;99.90
24011;DHT22;12217;50.792;4.372;2023-08-06T13:41:12;15.70;99.90
24011;DHT22;12217;50.792;4.372;2023-08-06T13:43:38;15.70;99.90
24011;DHT22;12217;50.792;4.372;2023-08-06T13:46:04;15.90;99.90
24011;DHT22;12217;50.792;4.372;2023-08-06T13:48:30;15.80;99.90
24011;DHT22;12217;50.792;4.372;2023-08-06T13:50:56;15.80;99.90
24011;DHT22;12217;50.792;4.372;2023-08-06T13:53:21;15.80;99.90
24011;DHT22;12217;50.792;4.372;2023-08-06T13:55:47;15.80;99.90
24011;DHT22;12217;50.792;4.372;2023-08-06T13:58:12;15.60;99.90
24011;DHT22;12217;50.792;4.372;2023-08-06T14:00:38;15.50;99.90
24011;DHT22;12217;50.792;4.372;2023-08-06T14:03:04;15.50;99.90
24011;DHT22;12217;50.792;4.372;2023-08-06T14:05:29;15.50;99.90
24011;DHT22;12217;50.792;4.372;2023-08-06T14:07:55;15.40;99.90
24011;DHT22;12217;50.792;4.372;2023-08-06T14:10:21;15.40;99.90
24011;DHT22;12217;50.792;4.372;2023-08-06T14:12:46;15.30;99.90
24011;DHT22;12217;50.792;4.372;2023-08-06T14:15:13;15.40;99.90
24011;DHT22;12217;50.792;4.372;2023-08-06T14:17:38;15.60;99.90
24011;DHT22;12217;50.792;4.372;2023-08-06T14:20:05;15.50;99.90
24011;DHT22;12217;50.792;4.372;2023-08-06T14:22:33;15.60;99.90
24011;DHT22;12217;50.792;4.372;2023-08-06T14:24:59;15.50;99.90
24011;DHT22;12217;50.792;4.372;2023-08-06T14:27:25;15.60;99.90
24011;DHT22;12217;50.792;4.372;2023-08-06T14:29:50;15.60;99.90
24011;DHT22;12217;50.792;4.372;2023-08-06T14:32:16;15.70;99.90
24011;DHT22;12217;50.792;4.372;2023-08-06T14:34:44;15.70;99.90
24011;DHT22;12217;50.792;4.372;2023-08-06T14:37:10;15.60;99.90
24011;DHT22;12217;50.792;4.372;2023-08-06T14:39:36;15.50;99.90
24011;DHT22;12217;50.792;4.372;2023-08-06T14:42:01;15.40;99.90
24011;DHT22;12217;50.792;4.372;2023-08-06T14:44:27;15.40;99.90
24011;DHT22;12217;50.792;4.372;2023-08-06T14:46:53;15.40;99.90
24011;DHT22;12217;50.792;4.372;2023-08-06T14:49:19;15.40;99.90
24011;DHT22;12217;50.792;4.372;2023-08-06T14:51:45;15.50;99.90
24011;DHT22;12217;50.792;4.372;2023-08-06T14:54:11;15.70;99.90
24011;DHT22;12217;50.792;4.372;2023-08-06T14:56:37;15.60;99.90
24011;DHT22;12217;50.792;4.372;2023-08-06T14:59:02;15.70;99.90
24011;DHT22;12217;50.792;4.372;2023-08-06T15:01:28;15.60;99.90
24011;DHT22;12217;50.792;4.372;2023-08-06T15:03:54;15.70;99.90
24011;DHT22;12217;50.792;4.372;2023-08-06T15:06:19;15.90;99.90
24011;DHT22;12217;50.792;4.372;2023-08-06T15:08:45;16.10;99.90
24011;DHT22;12217;50.792;4.372;2023-08-06T15:11:13;16.00;99.90
24011;DHT22;12217;50.792;4.372;2023-08-06T15:13:39;16.10;99.90
24011;DHT22;12217;50.792;4.372;2023-08-06T15:16:04;16.20;99.90
24011;DHT22;12217;50.792;4.372;2023-08-06T15:18:30;16.20;99.90
24011;DHT22;12217;50.792;4.372;2023-08-06T15:20:56;16.20;99.90
24011;DHT22;12217;50.792;4.372;2023-08-06T15:23:23;16.30;99.90
24011;DHT22;12217;50.792;4.372;2023-08-06T15:25:49;16.30;99.90
24011;DHT22;12217;50.792;4.372;2023-08-06T15:28:14;16.10;99.90
24011;DHT22;12217;50.792;4.372;2023-08-06T15:30:40;16.10;99.90
24011;DHT22;12217;50.792;4.372;2023-08-06T15:33:07;16.30;99.90
24011;DHT22;12217;50.792;4.372;2023-08-06T15:35:33;16.20;99.90
24011;DHT22;12217;50.792;4.372;2023-08-06T15:37:58;16.10;99.90
24011;DHT22;12217;50.792;4.372;2023-08-06T15:40:24;16.00;99.90